Time;durP1;ratioP1;P1;durP2;ratioP2;P2;SDS_P1;SDS_P2;PMS_P1;PMS_P2;Temp;Humidity;BMP_temperature;BMP_pressure;BME280_temperature;BME280_humidity;BME280_pressure;Samples;Min_cycle;Max_cycle;Signal;HPM_P1;HPM_P2
2022/01/10 00:00:46;;;;;;;29.98;5.72;;;3.20;99.90;;;;;;5074644;28;20032;-72
2022/01/10 00:03:13;;;;;;;23.45;6.43;;;3.20;99.90;;;;;;5074572;28;20400;-73
2022/01/10 00:05:39;;;;;;;16.83;4.70;;;3.10;99.90;;;;;;5074723;28;20041;-73
2022/01/10 00:08:04;;;;;;;16.73;4.97;;;3.10;99.90;;;;;;5074396;28;20055;-73
2022/01/10 00:10:34;;;;;;;17.17;4.90;;;3.10;99.90;;;;;;5074620;28;20080;-73
2022/01/10 00:13:00;;;;;;;31.70;6.07;;;3.00;99.90;;;;;;5074299;28;20048;-73
2022/01/10 00:15:26;;;;;;;31.08;5.70;;;3.00;99.90;;;;;;5074498;28;20041;-73
2022/01/10 00:17:52;;;;;;;19.50;5.17;;;3.00;99.90;;;;;;5074244;28;20048;-73
2022/01/10 00:20:19;;;;;;;21.20;4.87;;;2.90;99.90;;;;;;5073119;28;20041;-73
2022/01/10 00:22:48;;;;;;;18.30;5.03;;;2.90;99.90;;;;;;5074385;28;20044;-73
2022/01/10 00:25:16;;;;;;;16.35;4.90;;;2.90;99.90;;;;;;5072786;28;20064;-73
2022/01/10 00:27:42;;;;;;;23.25;5.43;;;2.80;99.90;;;;;;5074218;28;20389;-73
2022/01/10 00:30:10;;;;;;;22.50;5.63;;;2.90;99.90;;;;;;5073984;28;20072;-73
2022/01/10 00:32:37;;;;;;;25.25;4.38;;;2.80;99.90;;;;;;5073231;28;20391;-73
2022/01/10 00:35:04;;;;;;;24.75;5.82;;;2.80;99.90;;;;;;5073909;28;20118;-73
2022/01/10 00:37:29;;;;;;;23.17;5.40;;;2.80;99.90;;;;;;5073222;28;20143;-73
2022/01/10 00:39:55;;;;;;;20.67;5.27;;;2.80;99.90;;;;;;5073714;28;20540;-78
2022/01/10 00:42:21;;;;;;;24.00;5.80;;;2.80;99.90;;;;;;5073764;28;20040;-73
2022/01/10 00:44:51;;;;;;;19.03;5.00;;;2.70;99.90;;;;;;5039756;28;20091;-73
2022/01/10 00:47:18;;;;;;;15.07;5.13;;;2.70;99.90;;;;;;5073778;28;20092;-73
2022/01/10 00:49:45;;;;;;;21.40;5.15;;;2.70;99.90;;;;;;5072567;28;20048;-73
2022/01/10 00:52:11;;;;;;;24.38;5.68;;;2.60;99.90;;;;;;5072518;28;20055;-73
2022/01/10 00:54:38;;;;;;;21.65;4.60;;;2.60;99.90;;;;;;5073023;28;20048;-73
2022/01/10 00:57:04;;;;;;;21.88;4.90;;;2.60;99.90;;;;;;5073163;28;20481;-74
2022/01/10 00:59:30;;;;;;;20.03;5.10;;;2.60;99.90;;;;;;5073612;28;20045;-73
2022/01/10 01:01:56;;;;;;;17.90;6.05;;;2.60;99.90;;;;;;5072599;28;20044;-73
2022/01/10 01:04:22;;;;;;;24.08;5.65;;;2.60;99.90;;;;;;5072344;28;20388;-73
2022/01/10 01:06:48;;;;;;;16.80;5.30;;;2.50;99.90;;;;;;5073504;28;20041;-73
2022/01/10 01:09:17;;;;;;;23.15;6.18;;;2.50;99.90;;;;;;5073319;28;20374;-73
2022/01/10 01:17:25;;;;;;;19.23;5.28;;;2.50;99.90;;;;;;5072869;28;20051;-73
2022/01/10 01:20:28;;;;;;;18.85;5.60;;;2.40;99.90;;;;;;5072384;28;20160;-73
2022/01/10 01:25:24;;;;;;;22.25;6.65;;;2.40;99.90;;;;;;5073121;28;20052;-73
2022/01/10 01:27:53;;;;;;;23.23;6.00;;;2.40;99.90;;;;;;5073318;28;20553;-74
2022/01/10 01:30:19;;;;;;;24.00;6.28;;;2.40;99.90;;;;;;5073073;28;20087;-74
2022/01/10 01:32:45;;;;;;;26.77;6.23;;;2.40;99.90;;;;;;5072141;28;20083;-73
2022/01/10 01:35:11;;;;;;;18.17;5.45;;;2.30;99.90;;;;;;5073023;28;20048;-74
2022/01/10 01:37:38;;;;;;;24.67;6.07;;;2.40;99.90;;;;;;5073139;28;20113;-74
2022/01/10 01:40:09;;;;;;;23.40;6.28;;;2.30;99.90;;;;;;5072785;28;20438;-74
2022/01/10 01:42:38;;;;;;;16.40;5.50;;;2.20;99.90;;;;;;5072534;28;20048;-74
2022/01/10 01:45:07;;;;;;;17.70;6.32;;;2.30;99.90;;;;;;5072804;28;20045;-75
2022/01/10 01:47:33;;;;;;;16.70;6.10;;;2.20;99.90;;;;;;5072976;28;20048;-74
2022/01/10 01:49:59;;;;;;;19.80;6.10;;;2.20;99.90;;;;;;5073018;28;20036;-74
2022/01/10 01:52:26;;;;;;;19.30;6.13;;;2.20;99.90;;;;;;5072688;28;20368;-74
2022/01/10 01:54:52;;;;;;;16.13;5.90;;;2.20;99.90;;;;;;5072194;28;20055;-74
2022/01/10 01:57:19;;;;;;;19.80;5.97;;;2.10;99.90;;;;;;5072564;28;20040;-74
2022/01/10 01:59:45;;;;;;;19.70;6.25;;;2.10;99.90;;;;;;5055088;28;20051;-74
2022/01/10 02:02:11;;;;;;;17.63;5.70;;;2.10;99.90;;;;;;5072321;28;20044;-74
2022/01/10 02:04:37;;;;;;;17.03;5.00;;;2.10;99.90;;;;;;5072896;28;20308;-74
2022/01/10 02:07:03;;;;;;;23.20;6.23;;;2.00;99.90;;;;;;5072953;28;20045;-74
2022/01/10 02:09:30;;;;;;;28.63;7.63;;;2.00;99.90;;;;;;5072478;28;20131;-74
2022/01/10 02:11:56;;;;;;;19.00;6.13;;;2.00;99.90;;;;;;5072798;28;20052;-74
2022/01/10 02:14:22;;;;;;;23.52;7.47;;;2.00;99.90;;;;;;5072519;28;20117;-74
2022/01/10 02:16:55;;;;;;;16.73;5.73;;;2.00;99.90;;;;;;5072763;28;20048;-73
2022/01/10 02:19:21;;;;;;;15.18;6.10;;;2.00;99.90;;;;;;5071522;28;20489;-74
2022/01/10 02:21:47;;;;;;;17.90;6.95;;;2.00;99.90;;;;;;5072654;28;20149;-74
2022/01/10 02:24:12;;;;;;;20.57;6.87;;;2.00;99.90;;;;;;5072177;28;20387;-74
2022/01/10 02:26:39;;;;;;;18.23;6.53;;;2.00;99.90;;;;;;5073025;28;20052;-74
2022/01/10 02:29:06;;;;;;;25.08;7.60;;;1.90;99.90;;;;;;5072649;28;20119;-73
2022/01/10 02:31:36;;;;;;;21.83;7.47;;;2.00;99.90;;;;;;5072346;28;20051;-73
2022/01/10 02:34:03;;;;;;;20.90;6.60;;;2.00;99.90;;;;;;5072617;28;20052;-74
2022/01/10 02:36:28;;;;;;;26.23;7.85;;;2.00;99.90;;;;;;5072200;28;20123;-74
2022/01/10 02:39:00;;;;;;;19.63;6.53;;;1.90;99.90;;;;;;5072518;28;20148;-74
2022/01/10 02:41:30;;;;;;;18.25;7.05;;;1.90;99.90;;;;;;5072384;28;20097;-74
2022/01/10 02:43:59;;;;;;;27.05;7.32;;;1.90;99.90;;;;;;5054860;28;20427;-74
2022/01/10 02:46:26;;;;;;;23.80;7.20;;;1.90;99.90;;;;;;5072167;28;20045;-74
2022/01/10 02:48:52;;;;;;;22.65;6.85;;;1.80;99.90;;;;;;5072403;28;20084;-73
2022/01/10 02:51:18;;;;;;;19.67;7.45;;;1.80;99.90;;;;;;5072051;28;20110;-74
2022/01/10 02:53:44;;;;;;;15.77;5.70;;;1.80;99.90;;;;;;5072329;28;20049;-74
2022/01/10 02:56:11;;;;;;;20.50;6.27;;;1.80;99.90;;;;;;5071263;28;20283;-74
2022/01/10 02:58:37;;;;;;;21.10;7.60;;;1.80;99.90;;;;;;5071007;28;20412;-74
2022/01/10 03:01:04;;;;;;;24.02;7.20;;;1.80;99.90;;;;;;5071886;28;20485;-74
2022/01/10 03:03:30;;;;;;;18.08;6.40;;;1.80;99.90;;;;;;5071014;28;20133;-74
2022/01/10 03:05:57;;;;;;;27.83;7.67;;;1.70;99.90;;;;;;5073118;28;20087;-74
2022/01/10 03:08:28;;;;;;;14.40;6.18;;;1.80;99.90;;;;;;5057893;28;20048;-74
2022/01/10 03:10:54;;;;;;;17.70;6.88;;;1.70;99.90;;;;;;5074966;28;20093;-74
2022/01/10 03:13:20;;;;;;;17.25;6.75;;;1.70;99.90;;;;;;5074530;28;20144;-74
2022/01/10 03:15:45;;;;;;;16.47;6.23;;;1.70;99.90;;;;;;5075621;28;20102;-74
2022/01/10 03:18:11;;;;;;;21.23;7.13;;;1.70;99.90;;;;;;5075624;28;20047;-74
2022/01/10 03:20:37;;;;;;;24.73;7.60;;;1.70;99.90;;;;;;5074938;28;20044;-74
2022/01/10 03:23:03;;;;;;;16.97;6.00;;;1.70;99.90;;;;;;5075520;28;20095;-74
2022/01/10 03:25:29;;;;;;;23.30;6.70;;;1.70;99.90;;;;;;5074882;28;20291;-74
2022/01/10 03:27:55;;;;;;;25.13;7.40;;;1.70;99.90;;;;;;5075434;28;20048;-74
2022/01/10 03:30:21;;;;;;;19.37;7.47;;;1.70;99.90;;;;;;5073997;28;20051;-74
2022/01/10 03:32:50;;;;;;;18.60;7.37;;;1.70;99.90;;;;;;5075701;28;20080;-74
2022/01/10 03:35:16;;;;;;;19.80;7.65;;;1.60;99.90;;;;;;5075338;28;20087;-74
2022/01/10 03:37:42;;;;;;;16.47;7.07;;;1.60;99.90;;;;;;5075186;28;20079;-74
2022/01/10 03:40:08;;;;;;;24.27;7.57;;;1.60;99.90;;;;;;5057401;28;20107;-74
2022/01/10 03:42:34;;;;;;;20.63;7.63;;;1.60;99.90;;;;;;5073942;28;20056;-73
2022/01/10 03:45:00;;;;;;;21.85;7.80;;;1.60;99.90;;;;;;5075684;28;20055;-73
2022/01/10 03:47:26;;;;;;;22.00;6.63;;;1.60;99.90;;;;;;5074810;28;20101;-74
2022/01/10 03:49:52;;;;;;;13.30;6.17;;;1.60;99.90;;;;;;5074072;28;20041;-74
2022/01/10 03:52:17;;;;;;;19.37;7.70;;;1.50;99.90;;;;;;5075242;28;20076;-74
2022/01/10 03:54:43;;;;;;;17.07;7.40;;;1.50;99.90;;;;;;5074810;28;20481;-74
2022/01/10 03:57:10;;;;;;;19.50;8.33;;;1.60;99.90;;;;;;5075044;28;20500;-74
2022/01/10 03:59:37;;;;;;;23.58;8.65;;;1.50;99.90;;;;;;5074504;28;20052;-74
2022/01/10 04:02:04;;;;;;;24.98;7.57;;;1.50;99.90;;;;;;5074868;28;20051;-74
2022/01/10 04:04:30;;;;;;;24.38;8.75;;;1.50;99.90;;;;;;5074632;28;20056;-74
2022/01/10 04:06:56;;;;;;;20.75;7.85;;;1.50;99.90;;;;;;5075090;28;20090;-74
2022/01/10 04:09:22;;;;;;;26.67;8.63;;;1.40;99.90;;;;;;5074413;28;20540;-75
2022/01/10 04:11:49;;;;;;;22.63;9.10;;;1.40;99.90;;;;;;5074788;28;20089;-74
2022/01/10 04:14:14;;;;;;;25.13;8.13;;;1.40;99.90;;;;;;5073429;28;20083;-74
2022/01/10 04:16:40;;;;;;;27.90;9.07;;;1.40;99.90;;;;;;5074262;28;20103;-74
2022/01/10 04:19:06;;;;;;;22.40;8.07;;;1.40;99.90;;;;;;5073785;28;20049;-74
2022/01/10 04:21:32;;;;;;;23.63;8.45;;;1.40;99.90;;;;;;5074100;28;20055;-74
2022/01/10 04:23:58;;;;;;;23.85;8.35;;;1.30;99.90;;;;;;5072935;28;20049;-73
2022/01/10 04:26:24;;;;;;;31.10;10.47;;;1.40;99.90;;;;;;5073256;28;20055;-74
2022/01/10 04:28:50;;;;;;;20.90;9.20;;;1.30;99.90;;;;;;5090175;28;20438;-74
2022/01/10 04:31:16;;;;;;;29.40;10.63;;;1.30;99.90;;;;;;5073444;28;20075;-74
2022/01/10 04:33:42;;;;;;;27.67;9.82;;;1.40;99.90;;;;;;5073904;28;20141;-74
2022/01/10 04:36:08;;;;;;;22.60;8.53;;;1.40;99.90;;;;;;5072626;28;20107;-74
2022/01/10 04:38:37;;;;;;;24.38;9.25;;;1.40;99.90;;;;;;5073774;28;20052;-74
2022/01/10 04:41:04;;;;;;;25.45;9.00;;;1.40;99.90;;;;;;5072876;28;20044;-74
2022/01/10 04:43:30;;;;;;;20.88;9.32;;;1.40;99.90;;;;;;5073745;28;20090;-74
2022/01/10 04:45:56;;;;;;;22.35;9.80;;;1.40;99.90;;;;;;5074299;28;20085;-74
2022/01/10 04:48:22;;;;;;;23.83;8.60;;;1.40;99.90;;;;;;5072986;28;20126;-74
2022/01/10 04:53:29;;;;;;;20.98;8.75;;;1.30;99.90;;;;;;5073721;28;20047;-74
2022/01/10 04:55:55;;;;;;;25.40;10.43;;;1.30;99.90;;;;;;5073924;28;20037;-74
2022/01/10 04:58:21;;;;;;;17.07;9.40;;;1.30;99.90;;;;;;5073761;28;20044;-74
2022/01/10 05:00:46;;;;;;;19.87;9.30;;;1.30;99.90;;;;;;5073564;28;20044;-74
2022/01/10 05:03:12;;;;;;;24.77;10.13;;;1.30;99.90;;;;;;5073624;28;20044;-74
2022/01/10 05:05:38;;;;;;;30.97;9.17;;;1.30;99.90;;;;;;5072193;28;20055;-74
2022/01/10 05:08:04;;;;;;;19.23;9.30;;;1.20;99.90;;;;;;5073460;28;20048;-74
2022/01/10 05:10:30;;;;;;;31.23;11.50;;;1.20;99.90;;;;;;5073145;28;20040;-74
2022/01/10 05:12:55;;;;;;;24.57;10.37;;;1.20;99.90;;;;;;5073662;28;20044;-73
2022/01/10 05:15:21;;;;;;;26.90;10.00;;;1.20;99.90;;;;;;5073460;28;20101;-74
2022/01/10 05:17:47;;;;;;;24.67;9.93;;;1.20;99.90;;;;;;5073090;28;20052;-74
2022/01/10 05:20:13;;;;;;;26.37;10.30;;;1.20;99.90;;;;;;5073307;28;20036;-74
2022/01/10 05:22:40;;;;;;;17.93;9.67;;;1.20;99.90;;;;;;5072095;28;20067;-74
2022/01/10 05:25:06;;;;;;;20.63;9.85;;;1.20;99.90;;;;;;5071914;28;20060;-74
2022/01/10 05:27:32;;;;;;;27.38;10.65;;;1.20;99.90;;;;;;5071456;28;20048;-74
2022/01/10 05:29:57;;;;;;;19.23;11.07;;;1.20;99.90;;;;;;5089394;28;20181;-74
2022/01/10 05:32:23;;;;;;;27.47;10.57;;;1.10;99.90;;;;;;5073303;28;20185;-74
2022/01/10 05:34:49;;;;;;;28.60;10.97;;;1.10;99.90;;;;;;5105480;28;20088;-74
2022/01/10 05:37:15;;;;;;;23.10;11.20;;;1.10;99.90;;;;;;5055628;28;20059;-73
2022/01/10 05:39:40;;;;;;;24.27;11.10;;;1.20;99.90;;;;;;5072753;28;20036;-76
2022/01/10 05:42:06;;;;;;;26.43;11.93;;;1.10;99.90;;;;;;5055116;28;20049;-74
2022/01/10 05:44:32;;;;;;;22.20;10.37;;;1.10;99.90;;;;;;5072742;28;20052;-77
2022/01/10 05:47:00;;;;;;;29.80;11.80;;;1.10;99.90;;;;;;5072686;28;20514;-73
2022/01/10 05:49:32;;;;;;;19.45;9.98;;;1.10;99.90;;;;;;5073047;28;20099;-74
2022/01/10 05:51:58;;;;;;;28.90;12.05;;;1.10;99.90;;;;;;5072931;28;20088;-74
2022/01/10 05:54:23;;;;;;;21.33;11.07;;;1.10;99.90;;;;;;5072769;28;20080;-74
2022/01/10 05:56:49;;;;;;;25.17;11.27;;;1.10;99.90;;;;;;5072574;28;20048;-74
2022/01/10 05:59:15;;;;;;;23.00;11.40;;;1.10;99.90;;;;;;5073047;28;20102;-73
2022/01/10 06:01:42;;;;;;;24.23;12.00;;;1.10;99.90;;;;;;5071225;28;20047;-73
2022/01/10 06:04:09;;;;;;;26.83;12.38;;;1.10;99.90;;;;;;5072995;28;20056;-70
2022/01/10 06:06:34;;;;;;;24.10;11.60;;;1.10;99.90;;;;;;5071186;28;20460;-78
2022/01/10 06:09:00;;;;;;;35.40;13.57;;;1.10;99.90;;;;;;5072792;28;20079;-71
2022/01/10 06:11:26;;;;;;;29.10;13.17;;;1.00;99.90;;;;;;5072799;28;20044;-71
2022/01/10 06:13:51;;;;;;;23.03;12.30;;;1.00;99.90;;;;;;5071251;28;20055;-72
2022/01/10 06:16:17;;;;;;;29.73;12.93;;;1.00;99.90;;;;;;5072741;28;20110;-73
2022/01/10 06:18:43;;;;;;;26.73;13.30;;;1.00;99.90;;;;;;5104902;28;20076;-73
2022/01/10 06:21:08;;;;;;;28.67;13.43;;;1.10;99.90;;;;;;5072578;28;20123;-73
2022/01/10 06:23:34;;;;;;;33.07;15.37;;;1.00;99.90;;;;;;5072691;28;20119;-73
2022/01/10 06:26:00;;;;;;;28.70;13.50;;;1.10;99.90;;;;;;5072389;28;20276;-73
2022/01/10 06:28:25;;;;;;;30.60;15.80;;;1.00;99.90;;;;;;5105599;28;20429;-73
2022/01/10 06:30:51;;;;;;;28.40;15.20;;;1.00;99.90;;;;;;5071051;28;20089;-73
2022/01/10 06:33:17;;;;;;;36.20;17.57;;;1.00;99.90;;;;;;5072572;28;20090;-73
2022/01/10 06:35:43;;;;;;;32.27;15.93;;;1.00;99.90;;;;;;5072321;28;20048;-73
2022/01/10 06:38:08;;;;;;;35.13;17.73;;;1.00;99.90;;;;;;5072564;28;20057;-73
2022/01/10 06:40:34;;;;;;;33.20;15.70;;;1.00;99.90;;;;;;5072571;28;20048;-73
2022/01/10 06:43:00;;;;;;;35.80;15.40;;;1.00;99.90;;;;;;5108998;28;20052;-73
2022/01/10 06:45:26;;;;;;;35.60;17.47;;;1.00;99.90;;;;;;5076195;28;20047;-73
2022/01/10 06:47:52;;;;;;;28.70;15.50;;;1.00;99.90;;;;;;5074894;28;20369;-73
2022/01/10 06:50:18;;;;;;;27.93;16.10;;;1.00;99.90;;;;;;5074970;28;20044;-73
2022/01/10 06:52:44;;;;;;;36.77;17.53;;;1.00;99.90;;;;;;5075839;28;20131;-73
2022/01/10 06:55:10;;;;;;;31.00;17.33;;;1.00;99.90;;;;;;5075765;28;20119;-73
2022/01/10 06:57:35;;;;;;;36.47;17.58;;;0.90;99.90;;;;;;5058496;28;20286;-73
2022/01/10 07:00:04;;;;;;;28.83;17.23;;;0.90;99.90;;;;;;5075637;28;20106;-73
2022/01/10 07:02:30;;;;;;;35.90;18.35;;;1.00;99.90;;;;;;5074742;28;20407;-73
2022/01/10 07:04:55;;;;;;;32.07;19.80;;;0.90;99.90;;;;;;5075638;28;20054;-73
2022/01/10 07:07:21;;;;;;;35.13;18.07;;;1.00;99.90;;;;;;5109063;28;20051;-73
2022/01/10 07:09:47;;;;;;;33.43;17.37;;;1.00;99.90;;;;;;5075547;28;20476;-73
2022/01/10 07:12:13;;;;;;;39.30;19.80;;;0.90;99.90;;;;;;5075769;28;20045;-73
2022/01/10 07:14:39;;;;;;;34.47;18.17;;;0.90;99.90;;;;;;5075779;28;20049;-72
2022/01/10 07:17:05;;;;;;;36.97;19.85;;;0.90;99.90;;;;;;5075401;28;20099;-73
2022/01/10 07:19:31;;;;;;;35.65;19.30;;;0.90;99.90;;;;;;5075626;28;20055;-73
2022/01/10 07:21:57;;;;;;;35.28;17.85;;;0.90;99.90;;;;;;5075244;28;20094;-73
2022/01/10 07:24:23;;;;;;;38.87;19.60;;;0.90;99.90;;;;;;5075324;28;20049;-73
2022/01/10 07:26:49;;;;;;;34.27;19.30;;;0.90;99.90;;;;;;5075281;28;20067;-73
2022/01/10 07:29:14;;;;;;;33.17;17.87;;;0.90;99.90;;;;;;5058208;28;20511;-73
2022/01/10 07:31:43;;;;;;;35.03;18.43;;;0.90;99.90;;;;;;5108368;28;20052;-73
2022/01/10 07:34:11;;;;;;;27.90;17.67;;;0.90;99.90;;;;;;5075032;28;20048;-73
2022/01/10 07:36:37;;;;;;;28.55;18.25;;;1.00;99.90;;;;;;5075491;28;20052;-73
2022/01/10 07:39:04;;;;;;;32.42;18.48;;;1.00;99.90;;;;;;5074970;28;20055;-73
2022/01/10 07:41:30;;;;;;;38.15;20.30;;;0.90;99.90;;;;;;5107980;28;20067;-73
2022/01/10 07:43:56;;;;;;;30.20;18.50;;;1.00;99.90;;;;;;5040731;28;20048;-73
2022/01/10 07:46:22;;;;;;;33.85;19.65;;;0.90;99.90;;;;;;5075318;28;20052;-73
2022/01/10 07:48:48;;;;;;;36.25;19.95;;;0.90;99.90;;;;;;5074911;28;20036;-73
2022/01/10 07:51:14;;;;;;;36.67;20.40;;;0.90;99.90;;;;;;5075286;28;20063;-73
2022/01/10 07:53:41;;;;;;;35.53;19.37;;;0.90;99.90;;;;;;5072832;28;20044;-73
2022/01/10 07:56:08;;;;;;;39.03;20.42;;;0.90;99.90;;;;;;5074710;28;20297;-73
2022/01/10 07:58:34;;;;;;;38.25;20.20;;;0.90;99.90;;;;;;5074938;28;20049;-73
2022/01/10 08:01:00;;;;;;;41.92;21.40;;;0.90;99.90;;;;;;5107312;28;20118;-73
2022/01/10 08:03:26;;;;;;;37.47;18.17;;;0.80;99.90;;;;;;5074843;28;20044;-73
2022/01/10 08:05:52;;;;;;;42.03;21.47;;;0.90;99.90;;;;;;5074568;28;20053;-73
2022/01/10 08:08:18;;;;;;;35.22;20.40;;;0.90;99.90;;;;;;5074780;28;20185;-73
2022/01/10 08:10:44;;;;;;;40.00;22.75;;;0.90;99.90;;;;;;5074743;28;20044;-73
2022/01/10 08:13:10;;;;;;;37.53;21.77;;;0.90;99.90;;;;;;5074298;28;20059;-73
2022/01/10 08:15:35;;;;;;;31.63;20.87;;;0.90;99.90;;;;;;5074599;28;20055;-73
2022/01/10 08:18:02;;;;;;;41.27;22.43;;;0.80;99.90;;;;;;5073287;28;20049;-73
2022/01/10 08:20:27;;;;;;;38.17;23.13;;;0.80;99.90;;;;;;5074436;28;20033;-73
2022/01/10 08:22:53;;;;;;;36.43;20.73;;;0.90;99.90;;;;;;5073216;28;20040;-74
2022/01/10 08:25:19;;;;;;;40.93;21.60;;;0.90;99.90;;;;;;5074679;28;20109;-73
2022/01/10 08:27:45;;;;;;;35.60;20.03;;;0.90;99.90;;;;;;5074432;28;20091;-73
2022/01/10 08:30:11;;;;;;;38.73;23.93;;;0.90;99.90;;;;;;5074060;28;20056;-73
2022/01/10 08:32:37;;;;;;;35.20;21.47;;;0.90;99.90;;;;;;5074446;28;20501;-73
2022/01/10 08:35:04;;;;;;;37.63;22.52;;;1.00;99.90;;;;;;5073929;28;20488;-73
2022/01/10 08:37:29;;;;;;;40.65;22.38;;;0.90;99.90;;;;;;5074158;28;20040;-73
2022/01/10 08:39:56;;;;;;;34.30;21.43;;;1.00;99.90;;;;;;5073745;28;20055;-74
2022/01/10 08:42:23;;;;;;;35.72;21.98;;;1.00;99.90;;;;;;5074100;28;20052;-73
2022/01/10 08:44:49;;;;;;;29.52;18.85;;;1.00;99.90;;;;;;5074156;28;20053;-73
2022/01/10 08:47:15;;;;;;;31.75;21.80;;;1.10;99.90;;;;;;5073715;28;20052;-73
2022/01/10 08:49:41;;;;;;;36.70;22.13;;;1.00;99.90;;;;;;5106886;28;20495;-73
2022/01/10 08:52:07;;;;;;;30.17;19.25;;;1.00;99.90;;;;;;5073625;28;20430;-73
2022/01/10 08:54:34;;;;;;;38.60;21.73;;;1.00;99.90;;;;;;5073980;28;20044;-73
2022/01/10 08:57:00;;;;;;;35.45;23.20;;;1.00;99.90;;;;;;5073634;28;20368;-73
2022/01/10 08:59:28;;;;;;;40.42;23.80;;;1.10;99.90;;;;;;5073805;28;20408;-73
2022/01/10 09:01:57;;;;;;;32.92;20.50;;;1.10;99.90;;;;;;5073765;28;20098;-73
2022/01/10 09:04:23;;;;;;;38.40;22.15;;;1.10;99.90;;;;;;5073431;28;20044;-73
2022/01/10 09:06:51;;;;;;;38.97;21.20;;;1.10;99.90;;;;;;5072627;28;20059;-78
2022/01/10 09:09:17;;;;;;;29.48;18.10;;;1.10;99.90;;;;;;5072178;28;20056;-74
2022/01/10 09:11:44;;;;;;;43.83;23.88;;;1.10;99.90;;;;;;5073513;28;20040;-74
2022/01/10 09:14:10;;;;;;;36.40;21.25;;;1.00;99.90;;;;;;5073201;28;20090;-74
2022/01/10 09:16:36;;;;;;;34.42;22.08;;;1.30;99.90;;;;;;5072298;28;20094;-73
2022/01/10 09:19:03;;;;;;;43.07;23.40;;;1.20;99.90;;;;;;5073144;28;20443;-74
2022/01/10 09:21:28;;;;;;;38.00;22.60;;;1.20;99.90;;;;;;5073593;28;20123;-74
2022/01/10 09:23:54;;;;;;;31.30;20.50;;;1.20;99.90;;;;;;5073350;28;20079;-73
2022/01/10 09:26:20;;;;;;;36.53;21.57;;;1.20;99.90;;;;;;5072987;28;20143;-73
2022/01/10 09:28:46;;;;;;;42.10;22.87;;;1.30;99.90;;;;;;5073304;28;20377;-74
2022/01/10 09:31:12;;;;;;;45.90;25.30;;;1.20;99.90;;;;;;5072970;28;20048;-74
2022/01/10 09:33:39;;;;;;;37.38;22.35;;;1.30;99.90;;;;;;5073163;28;20053;-73
2022/01/10 09:36:05;;;;;;;38.13;24.13;;;1.30;99.90;;;;;;5072962;28;20049;-73
2022/01/10 09:38:31;;;;;;;42.20;25.60;;;1.30;99.90;;;;;;5073471;28;20048;-73
2022/01/10 09:40:56;;;;;;;47.50;26.90;;;1.30;99.90;;;;;;5073290;28;20369;-73
2022/01/10 09:43:22;;;;;;;46.97;28.43;;;1.40;99.90;;;;;;5072842;28;20049;-74
2022/01/10 09:45:51;;;;;;;53.70;30.73;;;1.40;99.90;;;;;;5073136;28;20044;-73
2022/01/10 09:48:17;;;;;;;48.58;29.02;;;1.40;99.90;;;;;;5072954;28;20411;-74
2022/01/10 09:50:43;;;;;;;63.70;32.63;;;1.50;99.90;;;;;;5073152;28;20119;-73
2022/01/10 09:53:11;;;;;;;53.92;30.33;;;1.50;99.90;;;;;;5072791;28;20041;-74
2022/01/10 09:55:37;;;;;;;69.00;35.80;;;1.50;99.90;;;;;;5072987;28;20125;-75
2022/01/10 09:58:03;;;;;;;65.57;33.77;;;1.60;99.90;;;;;;5072814;28;20488;-75
2022/01/10 10:00:30;;;;;;;47.10;26.75;;;1.60;99.90;;;;;;5072058;28;20055;-74
2022/01/10 10:02:56;;;;;;;49.85;30.90;;;1.70;99.90;;;;;;5073058;28;20488;-73
2022/01/10 10:05:23;;;;;;;68.75;36.92;;;1.70;99.90;;;;;;5072427;28;20542;-73
2022/01/10 10:07:50;;;;;;;46.08;29.00;;;1.70;99.90;;;;;;5073247;28;20522;-73
2022/01/10 10:10:17;;;;;;;61.17;33.50;;;1.80;99.90;;;;;;5072645;28;20445;-75
2022/01/10 10:12:47;;;;;;;49.42;27.58;;;1.80;99.90;;;;;;5072825;28;20049;-73
2022/01/10 10:15:16;;;;;;;52.78;30.63;;;1.80;99.90;;;;;;5072785;28;20133;-74
2022/01/10 10:17:43;;;;;;;47.10;27.80;;;1.80;99.90;;;;;;5076535;28;20469;-73
2022/01/10 10:20:15;;;;;;;69.43;35.25;;;1.90;99.90;;;;;;5076499;28;20051;-73
2022/01/10 10:22:43;;;;;;;58.95;33.60;;;1.90;99.90;;;;;;5076788;28;20095;-73
2022/01/10 10:25:10;;;;;;;72.95;37.63;;;2.00;99.90;;;;;;5076270;28;20057;-73
2022/01/10 10:27:41;;;;;;;74.22;36.85;;;2.00;99.90;;;;;;5075670;28;20425;-74
2022/01/10 10:30:17;;;;;;;72.45;38.03;;;2.00;99.90;;;;;;5076374;28;20392;-77
2022/01/10 10:32:42;;;;;;;73.03;38.60;;;2.00;99.90;;;;;;5075786;28;20056;-82
2022/01/10 10:35:09;;;;;;;66.93;37.70;;;2.10;99.90;;;;;;5076380;28;20052;-83
2022/01/10 10:37:36;;;;;;;70.50;39.85;;;2.20;99.90;;;;;;5092387;28;20135;-76
2022/01/10 10:40:07;;;;;;;69.20;37.78;;;2.20;99.90;;;;;;5076642;28;20571;-74
2022/01/10 10:42:33;;;;;;;70.85;37.88;;;2.30;99.90;;;;;;5076209;28;20125;-75
2022/01/10 10:45:08;;;;;;;64.67;37.43;;;2.30;99.90;;;;;;5075120;28;20472;-77
2022/01/10 10:47:36;;;;;;;71.07;38.95;;;2.30;99.90;;;;;;5076259;28;20279;-74
2022/01/10 10:50:05;;;;;;;69.85;39.28;;;2.40;99.90;;;;;;5076302;28;20049;-74
2022/01/10 10:52:36;;;;;;;68.22;37.75;;;2.40;99.90;;;;;;5075894;28;20131;-74
2022/01/10 10:55:11;;;;;;;65.93;36.17;;;2.40;99.90;;;;;;5075918;28;20399;-74
2022/01/10 10:57:37;;;;;;;60.20;35.65;;;2.50;99.90;;;;;;5109530;28;20511;-74
2022/01/10 11:00:15;;;;;;;62.88;35.55;;;2.50;99.90;;;;;;5074970;28;20086;-74
2022/01/10 11:02:41;;;;;;;65.80;37.38;;;2.50;99.90;;;;;;5109068;28;20050;-74
2022/01/10 11:05:08;;;;;;;73.60;38.10;;;2.60;99.90;;;;;;5075636;28;20084;-73
2022/01/10 11:07:35;;;;;;;67.78;37.38;;;2.60;99.90;;;;;;5075663;28;20044;-74
2022/01/10 11:10:04;;;;;;;65.82;36.88;;;2.60;99.90;;;;;;5074729;28;20040;-74
2022/01/10 11:12:30;;;;;;;70.93;39.15;;;;;;;;;;5075509;28;20143;-74
2022/01/10 11:14:59;;;;;;;59.67;37.10;;;;;;;;;;5074837;28;20476;-74
2022/01/10 11:17:25;;;;;;;67.80;36.40;;;;;;;;;;5074400;28;20053;-74
2022/01/10 11:20:16;;;;;;;67.18;36.90;;;2.90;99.90;;;;;;5075696;28;20149;-74
2022/01/10 11:22:54;;;;;;;57.40;35.55;;;2.90;99.90;;;;;;5108937;28;20396;-74
2022/01/10 11:25:22;;;;;;;62.33;36.40;;;2.90;99.90;;;;;;5073989;28;20519;-73
2022/01/10 11:27:49;;;;;;;58.95;34.10;;;2.90;99.90;;;;;;5075380;28;20049;-74
2022/01/10 11:30:36;;;;;;;60.95;36.67;;;2.90;99.90;;;;;;5074281;28;20120;-79
2022/01/10 11:33:07;;;;;;;58.60;35.85;;;2.90;99.90;;;;;;5075747;28;20056;-73
2022/01/10 11:35:44;;;;;;;67.90;36.30;;;3.00;99.90;;;;;;5073931;28;20377;-73
2022/01/10 11:38:35;;;;;;;76.63;35.22;;;3.00;99.90;;;;;;5075454;28;20044;-73
2022/01/10 11:41:13;;;;;;;64.60;34.85;;;3.00;99.90;;;;;;5075418;28;20080;-73
2022/01/10 11:43:55;;;;;;;57.90;36.45;;;3.10;99.90;;;;;;5075086;28;20041;-73
2022/01/10 11:46:22;;;;;;;65.57;35.58;;;3.10;99.90;;;;;;5075031;28;20113;-74
2022/01/10 11:48:50;;;;;;;70.03;36.53;;;3.10;99.90;;;;;;5074322;28;20123;-73
2022/01/10 11:51:19;;;;;;;65.13;36.70;;;3.20;99.90;;;;;;5075120;28;20048;-73
2022/01/10 11:53:48;;;;;;;67.72;36.85;;;3.20;99.90;;;;;;5108060;28;20040;-73
2022/01/10 11:56:25;;;;;;;64.45;36.30;;;3.30;99.90;;;;;;5075116;28;20193;-73
2022/01/10 11:59:22;;;;;;;58.92;33.13;;;3.30;99.90;;;;;;5074738;28;20484;-73
2022/01/10 12:01:51;;;;;;;59.58;33.50;;;3.30;99.90;;;;;;5070248;28;20085;-73
2022/01/10 12:04:18;;;;;;;56.50;33.30;;;3.40;99.90;;;;;;5074901;28;20052;-73
2022/01/10 12:06:44;;;;;;;68.35;33.47;;;3.40;99.90;;;;;;5073455;28;20051;-73
2022/01/10 12:09:11;;;;;;;53.75;32.42;;;3.40;99.90;;;;;;5074848;28;20052;-73
2022/01/10 12:11:39;;;;;;;59.13;32.25;;;3.40;99.90;;;;;;5074388;28;20485;-73
2022/01/10 12:14:07;;;;;;;59.22;31.50;;;3.40;99.90;;;;;;5074367;28;20051;-75
2022/01/10 12:16:33;;;;;;;55.35;31.45;;;3.50;99.90;;;;;;5074421;28;20110;-71
2022/01/10 12:18:59;;;;;;;54.90;31.60;;;3.50;99.90;;;;;;5074529;28;20044;-73
2022/01/10 12:21:26;;;;;;;68.67;33.53;;;3.50;99.90;;;;;;5074220;28;20043;-71
2022/01/10 12:23:52;;;;;;;50.95;31.70;;;3.60;99.90;;;;;;5074432;28;20040;-72
2022/01/10 12:26:22;;;;;;;61.13;32.75;;;3.60;99.90;;;;;;5074075;28;20511;-72
2022/01/10 12:28:54;;;;;;;52.72;31.20;;;3.70;99.90;;;;;;5074553;28;20044;-72
2022/01/10 12:31:21;;;;;;;59.20;32.72;;;3.70;99.90;;;;;;5074466;28;20471;-72
2022/01/10 12:33:49;;;;;;;48.50;30.02;;;3.70;99.90;;;;;;5074454;28;20052;-73
2022/01/10 12:36:16;;;;;;;57.92;32.83;;;3.70;99.90;;;;;;5074334;28;20145;-73
2022/01/10 12:38:43;;;;;;;55.55;32.28;;;3.80;99.90;;;;;;5073328;28;20428;-73
2022/01/10 12:41:09;;;;;;;61.10;32.40;;;3.80;99.90;;;;;;5074225;28;20044;-72
2022/01/10 12:43:36;;;;;;;54.00;31.52;;;3.90;99.90;;;;;;5073889;28;20103;-75
2022/01/10 12:46:02;;;;;;;57.17;33.17;;;3.90;99.90;;;;;;5074000;28;20056;-76
2022/01/10 12:48:28;;;;;;;59.50;31.70;;;3.90;99.90;;;;;;5073700;28;20098;-77
2022/01/10 12:50:55;;;;;;;56.23;31.70;;;4.00;99.90;;;;;;5056360;28;20060;-75